Observations for GLASGOW AIRPORT, United Kingdom (EGPF)

EGPF 191950Z AUTO 32004KT 9999 SCT043 BKN049 08/05 Q1006
EGPF 191920Z AUTO 33005KT 9999 BKN043 09/05 Q1005   
EGPF 191850Z AUTO 33006KT 9999 SCT040 BKN049 10/05 Q1005
EGPF 191820Z AUTO 34007KT 9999 SCT048 09/06 Q1005   
EGPF 191750Z AUTO 33005KT 9999 BKN048 10/06 Q1004   
EGPF 191720Z AUTO 32005KT 9999 SCT046 09/05 Q1004   
EGPF 191650Z AUTO 24005KT 9999 FEW046 08/05 Q1004   
EGPF 191620Z AUTO VRB03KT 9999 NCD 10/04 Q1003  
EGPF 191550Z AUTO 31004KT 9999 BKN048 11/05 Q1003   
EGPF 191520Z AUTO 34006KT 310V020 9999 NCD 10/05 Q1003  
EGPF 191450Z AUTO 36008KT 9999 NCD 11/05 Q1003  
EGPF 191420Z AUTO 36008KT 9999 OVC047 12/05 Q1002   
EGPF 191350Z AUTO 35010KT 9999 SCT049 13/06 Q1002   
EGPF 191320Z AUTO 01007KT 330V070 9999 SCT036 SCT046 13/06 Q1002
EGPF 191250Z AUTO 36006KT 300V030 9999 FEW043 12/06 Q1002   
EGPF 191220Z AUTO 33004KT 260V030 9999 BKN042 12/05 Q1001   
EGPF 191150Z AUTO 32004KT 290V360 9999 NCD 11/06 Q1001  
EGPF 191120Z AUTO VRB03KT 9999 SCT046 11/06 Q1001   
EGPF 191050Z AUTO 35006KT 310V030 9999 NCD 11/05 Q1001  
EGPF 191020Z AUTO 36005KT 330V050 9999 NCD 11/06 Q1000  
EGPF 190950Z AUTO 33005KT 270V020 9999 NCD 10/05 Q1000  
EGPF 190920Z AUTO VRB03KT 9999 -RA //////TCU 10/06 Q1000
EGPF 190850Z AUTO 36006KT 320V050 9999 //////TCU 10/06 Q1000
EGPF 190820Z AUTO 03006KT 330V080 9999 NCD 10/06 Q0999  
EGPF 190750Z AUTO 01006KT 330V030 9999 SCT037 10/07 Q0999   
EGPF 190720Z AUTO 33005KT 9999 BKN034 OVC045 10/07 Q0998
EGPF 190650Z AUTO 35004KT 9999 BKN037 09/07 Q0998   
EGPF 190620Z AUTO 32001KT 9999 BKN038 09/08 Q0998   
EGPF 190550Z AUTO VRB03KT 9999 SCT042 09/07 Q0997   
EGPF 190520Z AUTO VRB02KT 9999 BKN047 09/07 Q0997   
EGPF 190450Z AUTO 34005KT 9999 BKN043/// //////TCU 09/08 Q0997  
EGPF 190420Z AUTO VRB03KT 9999 -RA BKN026/// BKN033/// OVC042/// //////TCU 09/08 Q0997  
EGPF 190350Z AUTO VRB02KT 9999 -RA SCT027 BKN038 OVC048 09/08 Q0997 
EGPF 190320Z AUTO VRB03KT 9999 -RA SCT045 09/07 Q0996   
EGPF 190250Z AUTO VRB03KT 9999 -RA SCT030 SCT037 09/07 Q0996
EGPF 190220Z AUTO 02004KT 350V080 9999 -RA FEW030 BKN037 09/07 Q0996
EGPF 190150Z AUTO 03004KT 9999 -RA BKN031/// //////TCU 09/07 Q0996  
EGPF 190120Z AUTO 01007KT 9999 -RA OVC049 09/07 Q0996   
EGPF 190050Z AUTO 02007KT 9999 -RA SCT031 BKN045 09/07 Q0995
EGPF 190020Z AUTO 02006KT 9999 -RA FEW021/// BKN026/// OVC030/// //////TCU 09/07 Q0995  
EGPF 182350Z AUTO VRB02KT 9999 -RA OVC023 09/07 Q0995   
EGPF 182320Z AUTO 33004KT 300V360 9999 OVC025 09/07 Q0995   
EGPF 182250Z AUTO 33003KT 9999 BKN025 BKN036 09/07 Q0995
EGPF 182220Z AUTO VRB03KT 9999 BKN032 OVC039 09/08 Q0995
EGPF 182150Z AUTO VRB02KT 9999 SCT023 BKN031 OVC045 08/08 Q0995 
EGPF 182120Z AUTO 30002KT 9000 BKN024 OVC049 08/08 Q0995
EGPF 182050Z AUTO 27003KT 9999 OVC028 08/08 Q0995   
EGPF 182020Z AUTO 25003KT 8000 -RA BKN028 08/08 Q0995   
EGPF 181950Z AUTO 27003KT 9999 -RA FEW028 BKN039 08/08 Q0995
EGPF 181920Z AUTO 27003KT 9000 -RA OVC047/// //////TCU 09/08 Q0995